M I D A S
Marine Information and Data Acquisition System
Tripno 278 of the Zeeleeuw from 2002-05-17 07:00:00 to 2002-05-17 15:25:00
Back to CruiseResearch ActivitiesStationsMapUnderway DataData graphs

EquipmentUnitsComment
TimeDGPSUTC
LatitudeDGPSDM.mWGS84
LongitudeDGPSDM.mWGS84
TemperatureSBE03/SBE38deg celciusITS90
ConductivitySBE21S/mITS90
SalinitySBE21 Practical Salinity Units
ChlorophylAChelsea fluorimeterg/lCalibrated in Aceton
Missing or incorrect values are displayed as -999
Sea surface data collected by the RV Zeeleeuw from 2002-05-17 07:00:00 to 2002-05-17 15:25:00
Time Latitude Longitude Temperature Conductivity Salinity ChlorophylA
2002-05-17 07:01:03 51°13.719 2°55.771 20.51885 3.315435 27.149769  
2002-05-17 07:02:02 51°13.792 2°55.665 20.416348 3.358204 27.568164  
2002-05-17 07:03:03 51°13.887 2°55.584 21.943248 3.307222 27.03029  
2002-05-17 07:04:03 51°13.983 2°55.511 21.362188 3.378537 27.710681  
2002-05-17 07:05:03 51°14.083 2°55.439 21.874357 3.452365 28.439459  
2002-05-17 07:06:03 51°14.182 2°55.362 21.248776 3.469095 28.600904  
2002-05-17 07:07:03 51°14.268 2°55.255 19.968986 3.498148 28.881154  
2002-05-17 07:08:03 51°14.337 2°55.118 20.031746 3.504961 28.940619  
2002-05-17 07:09:03 51°14.414 2°54.956 21.256488 3.488029 28.708096  
2002-05-17 07:10:03 51°14.542 2°54.722 22.042745 3.554753 29.303752  
2002-05-17 07:11:02 51°14.705 2°54.545 19.657189 3.68281 30.55265  
2002-05-17 07:12:03 51°14.882 2°54.385 20.033445 3.728808 31.036608  
2002-05-17 07:13:03 51°15.055 2°54.228 19.889352 3.735523 31.112596  
2002-05-17 07:14:03 51°15.231 2°54.065 19.996711 3.743741 31.201975  
2002-05-17 07:15:03 51°15.413 2°53.893 20.700737 3.756368 31.29943  
2002-05-17 07:16:02 51°15.593 2°53.719 20.230823 3.779118 31.518676  
2002-05-17 07:17:03 51°15.781 2°53.534 21.456633 3.786634 31.571202  
2002-05-17 07:18:03 51°15.968 2°53.355 20.273401 3.777615 31.522577  
2002-05-17 07:19:03 51°16.155 2°53.166 21.382468 3.764487 31.46631  
2002-05-17 07:20:03 51°16.345 2°52.978 21.461786 3.762583 31.488849  
2002-05-17 07:21:03 51°16.551 2°52.832 21.966197 3.762584 31.524717  
2002-05-17 07:22:03 51°16.761 2°52.703 21.57569 3.768698 31.613868  
2002-05-17 07:23:02 51°16.97 2°52.604 20.76453 3.775813 31.700954  
2002-05-17 07:24:04 51°17.195 2°52.527 21.821491 3.786437 31.83787  
2002-05-17 07:25:03 51°17.414 2°52.493 20.225499 3.793553 31.920759  
2002-05-17 07:26:03 51°17.637 2°52.453 20.852498 3.794856 31.912106  
2002-05-17 07:27:02 51°17.85 2°52.469 20.404078 3.804277 32.000302  
2002-05-17 07:28:03 51°18.051 2°52.598 20.956246 3.78754 31.890503  
2002-05-17 07:29:03 51°18.182 2°52.857 21.136456 3.767898 31.746742  
2002-05-17 07:30:02 51°18.283 2°53.143 22.440254 3.756173 31.649796  
2002-05-17 07:31:03 51°18.376 2°53.446 19.124648 3.751462 31.603055  
2002-05-17 07:32:03 51°18.471 2°53.742 21.174712 3.752063 31.582176  
2002-05-17 07:33:03 51°18.569 2°54.034 23.185785 3.749357 31.5085  
2002-05-17 07:34:02 51°18.666 2°54.319 22.176056 3.745046 31.386834  
2002-05-17 07:35:03 51°18.769 2°54.613 21.101447 3.743141 31.329541  
2002-05-17 07:36:03 51°18.87 2°54.902 19.384506 3.740635 31.266812  
2002-05-17 07:37:03 51°18.972 2°55.19 20.143774 3.737729 31.209387  
2002-05-17 07:38:03 51°19.076 2°55.481 17.399925 3.742439 31.246796  
2002-05-17 07:39:03 51°19.172 2°55.779 21.294917 3.737028 31.238347  
2002-05-17 07:40:03 51°19.258 2°56.081 18.474174 3.744243 31.297179  
2002-05-17 07:41:03 51°19.344 2°56.382 21.791236 3.755768 31.38588  
2002-05-17 07:42:03 51°19.43 2°56.682 18.825974 3.750256 31.320669  
2002-05-17 07:43:03 51°19.506 2°56.988 17.767398 3.741537 31.242854  
2002-05-17 07:44:03 51°19.581 2°57.295 21.10061 3.731716 31.155451  
2002-05-17 07:45:02 51°19.655 2°57.593 18.613531 3.721594 31.02187  
2002-05-17 07:46:03 51°19.73 2°57.899 23.055191 3.69634 30.738153  
2002-05-17 07:47:03 51°19.808 2°58.202 17.947613 3.676698 30.532615  
2002-05-17 07:48:03 51°19.881 2°58.494 23.898742 3.654051 30.257771  
2002-05-17 07:49:03 51°19.955 2°58.787 22.650874 3.620883 29.908316  
2002-05-17 07:50:03 51°20.03 2°59.079 22.143282 3.602045 29.729022  
2002-05-17 07:51:03 51°20.104 2°59.372 21.638188 3.587817 29.568396  
2002-05-17 07:52:08 51°20.183 2°59.688 23.160784 3.572387 29.429053  
2002-05-17 07:53:09 51°20.258 2°59.987 23.983786 3.566776 29.368922  
2002-05-17 07:54:09 51°20.332 3°0.281 21.527909 3.561967 29.345579  
2002-05-17 07:55:09 51°20.408 3°0.574 21.234899 3.560063 29.319348  
2002-05-17 07:56:09 51°20.48 3°0.868 19.624529 3.554352 29.268336  
2002-05-17 07:57:09 51°20.554 3°1.161 20.082811 3.549242 29.221066  
2002-05-17 07:58:09 51°20.629 3°1.454 19.60797 3.544934 29.188155  
2002-05-17 07:59:08 51°20.698 3°1.744 19.149432 3.539424 29.151862  
2002-05-17 08:00:08 51°20.772 3°2.037 20.421537 3.537821 29.13897  
2002-05-17 08:01:09 51°20.846 3°2.334 22.495633 3.534715 29.115853  
2002-05-17 08:02:08 51°20.918 3°2.622 19.241487 3.533212 29.103289  
2002-05-17 08:03:09 51°20.989 3°2.919 22.355402 3.531309 29.098169  
2002-05-17 08:04:08 51°21.059 3°3.206 21.018136 3.531309 29.097584  
2002-05-17 08:05:09 51°21.138 3°3.5 21.72591 3.531108 29.094583  
2002-05-17 08:06:09 51°21.218 3°3.787 18.563695 3.532711 29.096374  
2002-05-17 08:07:09 51°21.296 3°4.077 21.45255 3.531609 29.099162  
2002-05-17 08:08:09 51°21.374 3°4.365 22.907932 3.532611 29.107151  
2002-05-17 08:09:08 51°21.45 3°4.649 18.367971 3.530908 29.111472  
2002-05-17 08:10:08 51°21.53 3°4.935 22.678624 3.533313 29.144015  
2002-05-17 08:11:09 51°21.609 3°5.225 20.387138 3.536018 29.191087  
2002-05-17 08:12:09 51°21.688 3°5.51 19.061645 3.535819 29.226921  
2002-05-17 08:13:09 51°21.77 3°5.798 19.154142 3.53632 29.232694  
2002-05-17 08:14:08 51°21.844 3°6.072 18.295199 3.535318 29.21997  
2002-05-17 08:15:08 51°21.922 3°6.353 20.286097 3.5259 29.140092  
2002-05-17 08:16:09 51°22.003 3°6.64 21.202883 3.521993 29.127184  
2002-05-17 08:17:08 51°22.082 3°6.92 19.942424 3.521693 29.130895  
2002-05-17 08:18:08 51°22.151 3°7.214 20.290207 3.519488 29.08718  
2002-05-17 08:19:09 51°22.215 3°7.514 18.998338 3.517685 29.063027  
2002-05-17 08:20:09 51°22.277 3°7.806 19.179203 3.517484 29.060605  
2002-05-17 08:21:08 51°22.338 3°8.091 20.328843 3.518285 29.047449  
2002-05-17 08:22:09 51°22.402 3°8.385 21.14418 3.518085 29.030406  
2002-05-17 08:23:08 51°22.462 3°8.667 18.756934 3.525399 29.101461  
2002-05-17 08:24:09 51°22.528 3°8.956 20.186 3.529506 29.120897  
2002-05-17 08:25:09 51°22.577 3°9.192 21.615292 3.539025 29.266358  
2002-05-17 08:26:09 51°22.606 3°9.327 22.960506 3.539025 29.296503  
2002-05-17 08:27:09 51°22.628 3°9.394 23.031541 3.538124 29.288813  
2002-05-17 08:28:08 51°22.653 3°9.414 19.097355 3.536721 29.27061  
2002-05-17 08:29:09 51°22.683 3°9.379 13.860675 3.535218 29.229071  
2002-05-17 08:30:08 51°22.699 3°9.333 13.927274 3.535719 29.243104  
2002-05-17 08:31:08 51°22.721 3°9.321 13.969031 3.535719 29.245465  
2002-05-17 08:32:09 51°22.735 3°9.31 13.830228 3.537121 29.26129  
2002-05-17 08:33:09 51°22.742 3°9.306 13.893364 3.538724 29.27364  
2002-05-17 08:34:08 51°22.747 3°9.304 13.786524 3.538424 29.279746  
2002-05-17 08:35:08 51°22.758 3°9.3 14.263201 3.539025 29.283491  
2002-05-17 08:36:09 51°22.772 3°9.295 13.415426 3.540127 29.28947  
2002-05-17 08:37:09 51°22.781 3°9.293 13.508227 3.539827 29.292624  
2002-05-17 08:38:09 51°22.781 3°9.294 13.454921 3.539927 29.271679  
2002-05-17 08:39:09 51°22.77 3°9.294 13.328206 3.539626 29.256528  
2002-05-17 08:40:09 51°22.761 3°9.292 13.501733 3.538724 29.222926  
2002-05-17 08:41:09 51°22.759 3°9.289 13.433685 3.538824 29.220312  
2002-05-17 08:42:09 51°22.752 3°9.29 13.987979 3.538123 29.223893  
2002-05-17 08:43:09 51°22.744 3°9.291 13.980825 3.537922 29.222057  
2002-05-17 08:44:09 51°22.745 3°9.29 14.029963 3.538423 29.2137  
2002-05-17 08:45:09 51°22.749 3°9.289 13.889516 3.538022 29.226508  
2002-05-17 08:46:09 51°22.753 3°9.291 13.660701 3.538624 29.235552  
2002-05-17 08:47:09 51°22.764 3°9.286 13.45826 3.539625 29.234132  
2002-05-17 08:48:09 51°22.786 3°9.266 14.106271 3.54223 29.247987  
2002-05-17 08:49:09 51°22.808 3°9.243 13.3501 3.543232 29.277212  
2002-05-17 08:50:09 51°22.816 3°9.254 13.436312 3.543734 29.301292  
2002-05-17 08:51:09 51°22.765 3°9.318 13.774963 3.544736 29.322312  
2002-05-17 08:52:09 51°22.711 3°9.423 14.081006 3.543433 29.296171  
2002-05-17 08:53:09 51°22.695 3°9.505 13.676187 3.54193 29.27353  
2002-05-17 08:54:09 51°22.706 3°9.526 13.299613 3.540728 29.274899  
2002-05-17 08:55:09 51°22.718 3°9.523 13.393599 3.541329 29.282185  
2002-05-17 08:56:09 51°22.727 3°9.51 14.411956 3.540828 29.294135  
2002-05-17 08:57:09 51°22.73 3°9.495 13.653334 3.542732 29.303329  
2002-05-17 08:58:09 51°22.728 3°9.476 14.119098 3.543333 29.308255  
2002-05-17 08:59:09 51°22.721 3°9.453 13.871337 3.543634 29.314562  
2002-05-17 09:00:09 51°22.708 3°9.431 13.375507 3.544335 29.31331  
2002-05-17 09:01:09 51°22.686 3°9.412 13.335743 3.544535 29.318106  
2002-05-17 09:02:09 51°22.655 3°9.392 13.741285 3.54684 29.324465  
2002-05-17 09:03:09 51°22.62 3°9.375 13.77988 3.54694 29.321246  
2002-05-17 09:04:09 51°22.584 3°9.361 13.880361 3.544735 29.300438  
2002-05-17 09:05:08 51°22.549 3°9.349 13.42567 3.543132 29.282194  
2002-05-17 09:06:09 51°22.512 3°9.335 13.800342 3.541329 29.265068  
2002-05-17 09:07:09 51°22.473 3°9.32 13.705196 3.539926 29.256925  
2002-05-17 09:08:08 51°22.404 3°9.307 13.575177 3.539926 29.249849  
2002-05-17 09:09:09 51°22.344 3°9.117 14.102788 3.537922 29.228534  
2002-05-17 09:10:09 51°22.45 3°8.999 13.76464 3.53652 29.211558  
2002-05-17 09:11:09 51°22.595 3°8.922 13.483404 3.53682 29.228446  
2002-05-17 09:12:09 51°22.743 3°8.829 14.129851 3.543533 29.300635  
2002-05-17 09:13:08 51°22.89 3°8.739 13.563846 3.548743 29.349624  
2002-05-17 09:14:09 51°23.043 3°8.652 14.304706 3.550948 29.387637  
2002-05-17 09:15:08 51°23.164 3°8.631 13.501377 3.561468 29.473562  
2002-05-17 09:16:09 51°23.238 3°8.591 13.392975 3.562871 29.519804  
2002-05-17 09:17:09 51°23.292 3°8.539 13.593214 3.565276 29.539529  
2002-05-17 09:18:09 51°23.336 3°8.487 13.571178 3.565977 29.55613  
2002-05-17 09:19:09 51°23.377 3°8.434 13.795958 3.569684 29.588441  
2002-05-17 09:20:09 51°23.463 3°8.327 13.935451 3.57269 29.603533  
2002-05-17 09:21:09 51°23.644 3°8.164 13.775184 3.576297 29.641499  
2002-05-17 09:22:08 51°23.844 3°7.984 13.69606 3.587919 29.70345  
2002-05-17 09:23:09 51°24.054 3°7.801 14.101024 3.593931 29.760509  
2002-05-17 09:24:09 51°24.243 3°7.66 13.910167 3.604352 29.905805  
2002-05-17 09:25:09 51°24.422 3°7.518 13.323166 3.59784 29.895966  
2002-05-17 09:26:09 51°24.602 3°7.381 13.668289 3.604954 29.980432  
2002-05-17 09:27:09 51°24.782 3°7.247 13.362849 3.606056 29.978461  
2002-05-17 09:28:09 51°24.961 3°7.117 13.600011 3.607359 29.9747  
2002-05-17 09:29:09 51°25.137 3°6.988 13.774652 3.610565 29.981832  
2002-05-17 09:30:09 51°25.314 3°6.859 13.621727 3.611867 29.987778  
2002-05-17 09:31:09 51°25.488 3°6.729 13.348495 3.612769 30.00216  
2002-05-17 09:32:08 51°25.66 3°6.6 13.666026 3.613771 30.0278  
2002-05-17 09:33:08 51°25.833 3°6.468 13.572155 3.616777 30.064059  
2002-05-17 09:34:09 51°26.016 3°6.427 13.86094 3.619583 30.105808  
2002-05-17 09:35:08 51°26.175 3°6.543 13.746249 3.619083 30.137206  
2002-05-17 09:36:08 51°26.32 3°6.709 13.838062 3.618682 30.159198  
2002-05-17 09:37:09 51°26.47 3°6.876 13.668999 3.618783 30.163801  
2002-05-17 09:38:08 51°26.61 3°7.048 13.77164 3.619885 30.173392  
2002-05-17 09:39:09 51°26.753 3°7.231 13.996634 3.620787 30.171324  
2002-05-17 09:40:08 51°26.891 3°7.407 13.870541 3.624193 30.204082  
2002-05-17 09:41:09 51°27.033 3°7.593 14.267467 3.629203 30.249849  
2002-05-17 09:42:09 51°27.172 3°7.775 13.969076 3.634614 30.296875  
2002-05-17 09:43:08 51°27.309 3°7.955 13.628831 3.639324 30.3448  
2002-05-17 09:44:08 51°27.449 3°8.136 13.738936 3.649444 30.408311  
2002-05-17 09:45:09 51°27.591 3°8.323 13.822481 3.654755 30.451922  
2002-05-17 09:46:09 51°27.731 3°8.506 13.773412 3.669083 30.519644  
2002-05-17 09:47:09 51°27.869 3°8.686 13.987714 3.678102 30.595595  
2002-05-17 09:48:09 51°27.951 3°8.799 13.761449 3.689826 30.661843  
2002-05-17 09:49:09 51°27.949 3°8.824 13.784664 3.693132 30.670713  
2002-05-17 09:50:09 51°27.942 3°8.851 14.064952 3.698843 30.667762  
2002-05-17 09:51:09 51°27.94 3°8.869 13.833105 3.703553 30.66672  
2002-05-17 09:52:09 51°27.939 3°8.884 13.600899 3.708963 30.670301  
2002-05-17 09:53:09 51°27.939 3°8.897 14.294684 3.709264 30.671833  
2002-05-17 09:54:09 51°27.941 3°8.909 13.829298 3.709665 30.679212  
2002-05-17 09:55:09 51°27.944 3°8.919 14.222506 3.710066 30.68105  
2002-05-17 09:56:09 51°27.948 3°8.926 14.255944 3.710567 30.680115  
2002-05-17 09:57:09 51°27.954 3°8.932 14.35049 3.709966 30.692447  
2002-05-17 09:58:09 51°27.961 3°8.935 13.878017 3.70686 30.692225  
2002-05-17 09:59:09 51°27.969 3°8.935 13.651958 3.703453 30.692947  
2002-05-17 10:00:09 51°27.976 3°8.936 14.211107 3.700547 30.690261  
2002-05-17 10:01:09 51°27.981 3°8.94 13.872841 3.700747 30.686546  
2002-05-17 10:02:09 51°27.98 3°8.949 13.877574 3.698944 30.689697  
2002-05-17 10:03:09 51°27.975 3°8.963 13.669531 3.695437 30.693848  
2002-05-17 10:04:09 51°27.962 3°8.98 14.439509 3.693233 30.685259  
2002-05-17 10:05:09 51°27.949 3°8.993 14.424242 3.698844 30.681354  
2002-05-17 10:06:09 51°27.94 3°8.999 14.45429 3.701549 30.67911  
2002-05-17 10:07:09 51°27.939 3°8.999 14.184253 3.702851 30.681234  
2002-05-17 10:08:09 51°27.947 3°8.995 13.826686 3.70215 30.679093  
2002-05-17 10:09:09 51°27.959 3°8.99 13.467339 3.70215 30.680945  
2002-05-17 10:10:09 51°27.97 3°8.989 13.565668 3.700146 30.679151  
2002-05-17 10:11:09 51°27.98 3°8.992 13.595613 3.700046 30.676375  
2002-05-17 10:12:09 51°27.99 3°8.999 14.102038 3.699545 30.675463  
2002-05-17 10:13:09 51°27.996 3°9.009 13.574244 3.698342 30.673644  
2002-05-17 10:14:09 51°27.996 3°9.024 14.310815 3.700948 30.66925  
2002-05-17 10:15:09 51°27.995 3°9.041 13.964791 3.698743 30.669309  
2002-05-17 10:16:09 51°27.998 3°9.052 13.76752 3.702651 30.662117  
2002-05-17 10:17:09 51°27.998 3°9.061 14.414281 3.70235 30.668598  
2002-05-17 10:18:09 51°27.997 3°9.07 14.300882 3.694535 30.67005  
2002-05-17 10:19:09 51°28.001 3°9.063 13.817655 3.699745 30.65139  
2002-05-17 10:20:09 51°28.005 3°9.03 14.076552 3.700446 30.652917  
2002-05-17 10:21:09 51°28.008 3°8.965 13.648186 3.695437 30.663531  
2002-05-17 10:22:09 51°28.021 3°8.822 13.446241 3.693332 30.656481  
2002-05-17 10:23:09 51°28.034 3°8.564 13.572466 3.691629 30.664882  
2002-05-17 10:24:09 51°28.058 3°8.237 13.800032 3.693834 30.682141  
2002-05-17 10:25:09 51°28.091 3°7.908 13.788694 3.692632 30.708846  
2002-05-17 10:26:09 51°28.126 3°7.568 13.570689 3.694235 30.721184  
2002-05-17 10:27:09 51°28.166 3°7.194 13.591304 3.695338 30.745664  
2002-05-17 10:28:09 51°28.204 3°6.816 14.042099 3.69654 30.766739  
2002-05-17 10:29:09 51°28.243 3°6.438 13.751612 3.694136 30.805561  
2002-05-17 10:30:09 51°28.283 3°6.06 13.5173 3.69073 30.826483  
2002-05-17 10:31:09 51°28.33 3°5.685 13.27132 3.691431 30.823604  
2002-05-17 10:32:09 51°28.381 3°5.309 13.583796 3.694337 30.824292  
2002-05-17 10:33:09 51°28.433 3°4.931 13.506181 3.697343 30.822791  
2002-05-17 10:34:09 51°28.485 3°4.55 13.835451 3.699347 30.84324  
2002-05-17 10:35:09 51°28.518 3°4.171 13.869877 3.704958 30.865237  
2002-05-17 10:36:09 51°28.554 3°3.87 14.305981 3.710369 30.852914  
2002-05-17 10:37:09 51°28.62 3°3.739 14.03367 3.710067 30.766889  
2002-05-17 10:38:09 51°28.661 3°3.69 13.783645 3.708864 30.728585  
2002-05-17 10:39:09 51°28.68 3°3.663 13.647653 3.706659 30.709515  
2002-05-17 10:40:09 51°28.689 3°3.648 13.582464 3.70726 30.702703  
2002-05-17 10:41:09 51°28.694 3°3.637 14.229635 3.70716 30.699929  
2002-05-17 10:42:09 51°28.697 3°3.631 13.654532 3.705858 30.698427  
2002-05-17 10:43:09 51°28.691 3°3.635 13.888322 3.706258 30.693477  
2002-05-17 10:44:09 51°28.675 3°3.648 13.83222 3.702351 30.698235  
2002-05-17 10:45:09 51°28.657 3°3.663 13.73078 3.707661 30.69652  
2002-05-17 10:46:09 51°28.645 3°3.677 13.547578 3.708463 30.707601  
2002-05-17 10:47:09 51°28.638 3°3.686 13.779127 3.709064 30.714988  
2002-05-17 10:48:09 51°28.636 3°3.697 14.038657 3.710868 30.717394  
2002-05-17 10:49:09 51°28.641 3°3.715 13.960815 3.71177 30.724459  
2002-05-17 10:50:09 51°28.648 3°3.739 14.049203 3.71167 30.728475  
2002-05-17 10:51:09 51°28.655 3°3.769 14.24477 3.714175 30.738565  
2002-05-17 10:52:09 51°28.659 3°3.802 13.588106 3.71678 30.750805  
2002-05-17 10:53:09 51°28.66 3°3.83 13.558424 3.713774 30.760824  
2002-05-17 10:54:09 51°28.662 3°3.835 13.607916 3.712672 30.770469  
2002-05-17 10:55:09 51°28.665 3°3.813 13.509161 3.711871 30.779182  
2002-05-17 10:56:09 51°28.668 3°3.77 13.962582 3.709065 30.77996  
2002-05-17 10:57:09 51°28.671 3°3.722 13.606673 3.707261 30.77014  
2002-05-17 10:58:09 51°28.677 3°3.685 14.160075 3.708664 30.762626  
2002-05-17 10:59:09 51°28.682 3°3.659 13.999195 3.710267 30.752021  
2002-05-17 11:00:09 51°28.684 3°3.633 13.973184 3.71167 30.750101  
2002-05-17 11:01:09 51°28.686 3°3.61 14.144128 3.713073 30.748184  
2002-05-17 11:02:09 51°28.688 3°3.601 13.920025 3.714375 30.745966  
2002-05-17 11:03:09 51°28.684 3°3.611 13.972919 3.716279 30.747431  
2002-05-17 11:04:09 51°28.672 3°3.626 14.669544 3.717081 30.74925  
2002-05-17 11:05:09 51°28.662 3°3.65 13.760962 3.71678 30.766246  
2002-05-17 11:06:09 51°28.649 3°3.671 14.280967 3.71658 30.78357  
2002-05-17 11:07:09 51°28.643 3°3.69 14.060055 3.728505 30.834539  
2002-05-17 11:08:09 51°28.634 3°3.709 13.541799 3.726301 30.853876  
2002-05-17 11:09:09 51°28.603 3°3.724 14.072582 3.723595 30.85624  
2002-05-17 11:10:09 51°28.54 3°3.723 14.343023 3.722393 30.848882  
2002-05-17 11:11:09 51°28.405 3°3.583 14.093177 3.721992 30.843328  
2002-05-17 11:12:09 51°28.22 3°3.332 13.974244 3.720188 30.852767  
2002-05-17 11:13:09 51°28.053 3°3.022 13.787011 3.719086 30.856266  
2002-05-17 11:14:09 51°27.89 3°2.705 13.992616 3.72099 30.861401  
2002-05-17 11:15:09 51°27.727 3°2.389 14.025903 3.719787 30.817438  
2002-05-17 11:16:09 51°27.564 3°2.072 14.17276 3.714876 30.728974  
2002-05-17 11:17:09 51°27.393 3°1.762 13.987626 3.709765 30.685059  
2002-05-17 11:18:09 51°27.22 3°1.451 13.717258 3.697942 30.663773  
2002-05-17 11:19:09 51°27.041 3°1.148 13.617242 3.680006 30.657845  
2002-05-17 11:20:09 51°26.859 3°0.846 13.289573 3.667582 30.659004  
2002-05-17 11:21:09 51°26.677 3°0.544 13.757993 3.66578 30.692215  
2002-05-17 11:22:09 51°26.494 3°0.241 13.190123 3.667183 30.751036  
2002-05-17 11:23:09 51°26.311 2°59.943 13.096478 3.672394 30.842436  
2002-05-17 11:24:09 51°26.128 2°59.647 13.207774 3.676103 30.954308  
2002-05-17 11:25:09 51°25.946 2°59.351 13.219299 3.673298 30.935029  
2002-05-17 11:26:09 51°25.772 2°59.04 12.791331 3.673097 30.950936  
2002-05-17 11:27:09 51°25.611 2°58.712 13.393599 3.672295 30.888259  
2002-05-17 11:28:09 51°25.453 2°58.383 13.029226 3.679108 30.848333  
2002-05-17 11:29:09 51°25.295 2°58.054 13.300505 3.675 30.85035  
2002-05-17 11:30:09 51°25.135 2°57.726 13.52984 3.671794 30.858285  
2002-05-17 11:31:09 51°24.976 2°57.397 13.311658 3.671192 30.845723  
2002-05-17 11:32:09 51°24.819 2°57.066 13.165182 3.672695 30.852184  
2002-05-17 11:33:09 51°24.662 2°56.737 13.16925 3.676001 30.814981  
2002-05-17 11:34:09 51°24.502 2°56.409 13.416228 3.674998 30.769856  
2002-05-17 11:35:09 51°24.346 2°56.079 13.520768 3.674095 30.681443  
2002-05-17 11:36:09 51°24.197 2°55.743 13.765792 3.677903 30.674408  
2002-05-17 11:37:09 51°24.115 2°55.356 13.635224 3.6768 30.65362  
2002-05-17 11:38:09 51°24.04 2°54.964 13.529617 3.668884 30.592069  
2002-05-17 11:39:09 51°23.94 2°54.584 13.797907 3.669184 30.552712  
2002-05-17 11:40:09 51°23.789 2°54.253 13.436891 3.670989 30.643898  
2002-05-17 11:41:09 51°23.615 2°53.95 13.161784 3.667283 30.730007  
2002-05-17 11:42:09 51°23.439 2°53.644 13.433552 3.661172 30.768539  
2002-05-17 11:43:09 51°23.266 2°53.342 12.962623 3.659369 30.79142  
2002-05-17 11:44:09 51°23.093 2°53.037 13.088824 3.657766 30.804226  
2002-05-17 11:45:09 51°22.921 2°52.729 13.405672 3.658367 30.802897  
2002-05-17 11:46:09 51°22.751 2°52.421 12.943697 3.658467 30.803203  
2002-05-17 11:47:09 51°22.579 2°52.116 13.073784 3.658166 30.775128  
2002-05-17 11:48:09 51°22.408 2°51.804 13.256008 3.660471 30.799201  
2002-05-17 11:49:09 51°22.238 2°51.492 13.15463 3.661674 30.825616  
2002-05-17 11:50:09 51°22.066 2°51.185 13.189721 3.662575 30.820775  
2002-05-17 11:51:09 51°21.896 2°50.873 12.957287 3.663779 30.899201  
2002-05-17 11:52:09 51°21.73 2°50.558 13.670996 3.667085 30.921298  
2002-05-17 11:53:09 51°21.57 2°50.235 13.980471 3.652651 30.494288  
2002-05-17 11:54:09 51°21.393 2°49.94 13.995089 3.652346 30.183166  
2002-05-17 11:55:09 51°21.203 2°49.667 14.149943 3.655051 30.164385  
2002-05-17 11:56:09 51°21.014 2°49.395 13.778817 3.650241 30.095549  
2002-05-17 11:57:09 51°20.825 2°49.121 13.568645 3.64884 30.23358  
2002-05-17 11:58:09 51°20.636 2°48.845 13.942831 3.64363 30.189273  
2002-05-17 11:59:09 51°20.448 2°48.565 14.225807 3.641824 30.060029  
2002-05-17 12:00:09 51°20.259 2°48.287 13.653068 3.640322 30.078843  
2002-05-17 12:01:09 51°20.07 2°48.008 14.161881 3.646034 30.156112  
2002-05-17 12:02:09 51°19.895 2°47.747 13.543266 3.659362 30.362882  
2002-05-17 12:03:09 51°19.772 2°47.681 13.539665 3.654454 30.434945  
2002-05-17 12:04:09 51°19.794 2°47.767 14.186014 3.662169 30.418826  
2002-05-17 12:05:09 51°19.858 2°47.705 13.516321 3.664772 30.298487  
2002-05-17 12:06:09 51°19.876 2°47.698 14.287386 3.668081 30.524585  
2002-05-17 12:07:09 51°19.885 2°47.728 13.917284 3.663471 30.44438  
2002-05-17 12:08:09 51°19.878 2°47.734 14.429902 3.663671 30.366462  
2002-05-17 12:09:09 51°19.863 2°47.733 14.430253 3.66357 30.364316  
2002-05-17 12:10:09 51°19.845 2°47.729 13.48852 3.665274 30.391026  
2002-05-17 12:11:09 51°19.829 2°47.735 13.280961 3.664873 30.392847  
2002-05-17 12:12:09 51°19.821 2°47.75 14.163951 3.664173 30.436709  
2002-05-17 12:13:09 51°19.824 2°47.761 14.03976 3.665676 30.465353  
2002-05-17 12:14:09 51°19.842 2°47.751 13.540866 3.666578 30.516244  
2002-05-17 12:15:09 51°19.858 2°47.741 13.921617 3.66638 30.629138  
2002-05-17 12:16:09 51°19.862 2°47.724 13.586373 3.659865 30.475755  
2002-05-17 12:17:09 51°19.861 2°47.703 13.449669 3.660165 30.457557  
2002-05-17 12:18:09 51°19.852 2°47.688 13.762956 3.662069 30.450505  
2002-05-17 12:19:09 51°19.852 2°47.71 13.6615 3.658261 30.449201  
2002-05-17 12:20:09 51°19.912 2°47.77 14.110635 3.650841 30.028279  
2002-05-17 12:21:09 51°19.932 2°47.777 14.423452 3.654848 29.988832  
2002-05-17 12:22:09 51°19.932 2°47.77 14.015221 3.653347 30.086032  
2002-05-17 12:23:09 51°19.933 2°47.758 14.374205 3.653846 30.007794  
2002-05-17 12:24:09 51°19.936 2°47.75 13.841381 3.654748 30.002262  
2002-05-17 12:25:09 51°19.931 2°47.742 14.143335 3.661465 30.278454  
2002-05-17 12:26:09 51°19.925 2°47.729 13.959578 3.652946 30.115503  
2002-05-17 12:27:09 51°19.923 2°47.716 13.943583 3.653847 30.073771  
2002-05-17 12:28:09 51°19.923 2°47.707 13.934037 3.656353 30.111126  
2002-05-17 12:29:09 51°19.919 2°47.705 13.956264 3.656756 30.247953  
2002-05-17 12:30:09 51°19.907 2°47.706 14.033273 3.65425 30.187306  
2002-05-17 12:31:09 51°19.896 2°47.703 14.164656 3.654249 30.109944  
2002-05-17 12:32:09 51°19.877 2°47.708 13.64246 3.654749 30.086829  
2002-05-17 12:33:09 51°19.835 2°47.707 13.71105 3.656354 30.208438  
2002-05-17 12:34:09 51°19.779 2°47.682 14.144965 3.653147 30.134844  
2002-05-17 12:35:09 51°19.73 2°47.641 13.823898 3.652446 30.130228  
2002-05-17 12:36:09 51°19.684 2°47.597 14.014338 3.652346 30.148045  
2002-05-17 12:37:09 51°19.638 2°47.547 13.669886 3.653248 30.18902  
2002-05-17 12:38:09 51°19.594 2°47.49 13.88987 3.654651 30.210394  
2002-05-17 12:39:09 51°19.563 2°47.324 14.007319 3.653649 30.2188  
2002-05-17 12:40:09 51°19.471 2°47.069 13.882307 3.65395 30.243454  
2002-05-17 12:41:09 51°19.325 2°46.749 13.821994 3.664373 30.404169  
2002-05-17 12:42:09 51°19.176 2°46.424 13.505959 3.664373 30.461327  
2002-05-17 12:43:09 51°19.036 2°46.099 13.773766 3.672591 30.550211  
2002-05-17 12:44:09 51°18.88 2°45.783 13.701338 3.680007 30.688934  
2002-05-17 12:45:09 51°18.75 2°45.435 13.618352 3.678906 30.7661  
2002-05-17 12:46:09 51°18.617 2°45.09 13.277613 3.681411 30.802551  
2002-05-17 12:47:09 51°18.487 2°44.744 13.206612 3.684218 30.863211  
2002-05-17 12:48:09 51°18.357 2°44.406 13.416406 3.691634 30.96447  
2002-05-17 12:49:09 51°18.232 2°44.069 13.217021 3.694241 31.113922  
2002-05-17 12:50:09 51°18.111 2°43.738 13.143854 3.69394 31.11685  
2002-05-17 12:51:09 51°17.989 2°43.409 13.546334 3.69414 31.08621  
2002-05-17 12:52:09 51°17.868 2°43.076 13.058651 3.697447 31.100584  
2002-05-17 12:53:09 51°17.749 2°42.742 13.167954 3.702057 31.146885  
2002-05-17 12:54:09 51°17.629 2°42.406 13.102116 3.705765 31.194988  
2002-05-17 12:55:09 51°17.508 2°42.07 13.033078 3.709774 31.257488  
2002-05-17 12:56:09 51°17.388 2°41.734 13.239979 3.713682 31.321732  
2002-05-17 12:57:09 51°17.271 2°41.407 13.257571 3.715286 31.333554  
2002-05-17 12:58:09 51°17.223 2°41.227 13.214252 3.719695 31.368474  
2002-05-17 12:59:09 51°17.208 2°41.175 13.108425 3.7219 31.383355  
2002-05-17 13:00:09 51°17.264 2°41.128 13.605696 3.7222 31.38553  
2002-05-17 13:01:09 51°17.304 2°41.185 12.875213 3.723202 31.37819  
2002-05-17 13:02:09 51°17.289 2°41.208 13.383618 3.721899 31.369195  
2002-05-17 13:03:09 51°17.274 2°41.221 12.763226 3.721899 31.369839  
2002-05-17 13:04:09 51°17.265 2°41.224 13.194592 3.719294 31.343488  
2002-05-17 13:05:09 51°17.248 2°41.229 13.274221 3.719595 31.352735  
2002-05-17 13:06:09 51°17.248 2°41.219 13.165137 3.718492 31.341759  
2002-05-17 13:07:09 51°17.245 2°41.207 13.27007 3.718793 31.340078  
2002-05-17 13:08:09 51°17.246 2°41.187 13.347113 3.7221 31.375578  
2002-05-17 13:09:09 51°17.249 2°41.168 13.145016 3.724405 31.42039  
2002-05-17 13:10:09 51°17.249 2°41.153 12.93154 3.721299 31.391243  
2002-05-17 13:11:09 51°17.248 2°41.148 13.221935 3.721298 31.377717  
2002-05-17 13:12:09 51°17.244 2°41.147 12.903675 3.721399 31.376725  
2002-05-17 13:13:09 51°17.239 2°41.146 13.127886 3.721699 31.369247  
2002-05-17 13:14:09 51°17.24 2°41.138 13.060397 3.721599 31.367664  
2002-05-17 13:15:09 51°17.244 2°41.104 13.12811 3.721799 31.368256  
2002-05-17 13:16:09 51°17.248 2°41.06 12.942666 3.7219 31.398173  
2002-05-17 13:17:09 51°17.249 2°41.022 13.036035 3.722 31.364989  
2002-05-17 13:18:09 51°17.243 2°40.984 13.336144 3.723001 31.362164  
2002-05-17 13:19:09 51°17.237 2°40.946 13.839744 3.723503 31.36943  
2002-05-17 13:20:09 51°17.227 2°40.91 13.258419 3.723703 31.372594  
2002-05-17 13:21:09 51°17.215 2°40.874 13.149891 3.724204 31.372787  
2002-05-17 13:22:09 51°17.203 2°40.839 13.292608 3.724004 31.372839  
2002-05-17 13:23:09 51°17.195 2°40.8 13.620528 3.724104 31.37635  
2002-05-17 13:24:09 51°17.219 2°40.758 13.292072 3.725006 31.380299  
2002-05-17 13:25:09 51°17.247 2°40.747 13.441121 3.726409 31.398592  
2002-05-17 13:26:09 51°17.265 2°40.74 13.054442 3.725607 31.382716  
2002-05-17 13:27:09 51°17.28 2°40.731 13.601565 3.726308 31.384787  
2002-05-17 13:28:09 51°17.294 2°40.723 12.874271 3.726409 31.383796  
2002-05-17 13:29:09 51°17.306 2°40.714 12.827781 3.726709 31.388542  
2002-05-17 13:30:09 51°17.318 2°40.706 13.096343 3.72701 31.397147  
2002-05-17 13:31:09 51°17.323 2°40.775 13.329098 3.72701 31.381071  
2002-05-17 13:32:09 51°17.23 2°40.749 12.988313 3.726709 31.379541  
2002-05-17 13:33:09 51°17.042 2°40.657 13.429499 3.72691 31.389776  
2002-05-17 13:34:09 51°16.817 2°40.598 13.393688 3.728213 31.452249  
2002-05-17 13:35:09 51°16.591 2°40.549 13.241318 3.729215 31.434555  
2002-05-17 13:36:09 51°16.366 2°40.501 13.326467 3.732722 31.467441  
2002-05-17 13:37:09 51°16.139 2°40.472 13.028061 3.737132 31.502331  
2002-05-17 13:38:09 51°15.91 2°40.456 13.298453 3.741842 31.543913  
2002-05-17 13:39:09 51°15.681 2°40.44 13.61702 3.747454 31.582304  
2002-05-17 13:40:09 51°15.45 2°40.452 13.016009 3.755772 31.65252  
2002-05-17 13:41:09 51°15.227 2°40.541 13.05077 3.761083 31.712074  
2002-05-17 13:42:09 51°15.006 2°40.649 13.226536 3.770705 31.810174  
2002-05-17 13:43:09 51°14.783 2°40.759 13.682398 3.786138 31.952489  
2002-05-17 13:44:10 51°14.56 2°40.877 13.487141 3.817909 32.213466  
2002-05-17 13:45:09 51°14.346 2°41.003 13.370739 3.85449 32.478932  
2002-05-17 13:46:09 51°14.214 2°41.107 13.375953 3.839857 32.34097  
2002-05-17 13:47:09 51°14.185 2°41.172 13.411195 3.843265 32.363024  
2002-05-17 13:48:10 51°14.176 2°41.166 13.185922 3.843365 32.373876  
2002-05-17 13:49:11 51°14.168 2°41.167 13.084707 3.840358 32.343029  
2002-05-17 13:50:10 51°14.156 2°41.171 13.632294 3.842463 32.352863  
2002-05-17 13:51:11 51°14.143 2°41.178 13.695572 3.848677 32.389326  
2002-05-17 13:52:10 51°14.131 2°41.188 13.300818 3.852184 32.391822  
2002-05-17 13:53:10 51°14.118 2°41.198 13.495461 3.855091 32.409141  
2002-05-17 13:54:10 51°14.106 2°41.21 13.47624 3.856093 32.414566  
2002-05-17 13:55:10 51°14.093 2°41.223 13.031779 3.859801 32.425521  
2002-05-17 13:56:10 51°14.082 2°41.236 13.577665 3.857596 32.428643  
2002-05-17 13:57:11 51°14.07 2°41.252 13.24757 3.857496 32.424403  
2002-05-17 13:58:10 51°14.058 2°41.268 13.281675 3.861405 32.451093  
2002-05-17 13:59:10 51°14.046 2°41.282 13.50151 3.866817 32.485235  
2002-05-17 14:00:11 51°14.035 2°41.295 13.584019 3.868721 32.499752  
2002-05-17 14:01:10 51°14.024 2°41.309 13.949769 3.871628 32.523647  
2002-05-17 14:02:10 51°14.014 2°41.323 13.376978 3.873131 32.527794  
2002-05-17 14:03:11 51°14.004 2°41.338 13.268195 3.877642 32.561391  
2002-05-17 14:04:10 51°13.994 2°41.355 13.681067 3.879646 32.585445  
2002-05-17 14:05:10 51°13.983 2°41.374 13.661455 3.884758 32.622673  
2002-05-17 14:06:10 51°13.971 2°41.398 13.3809 3.888266 32.644222  
2002-05-17 14:07:10 51°13.954 2°41.432 13.691181 3.888467 32.671984  
2002-05-17 14:08:10 51°13.935 2°41.472 13.785948 3.888467 32.685276  
2002-05-17 14:09:10 51°13.906 2°41.507 13.460085 3.886462 32.669824  
2002-05-17 14:10:10 51°13.874 2°41.519 13.53562 3.883255 32.640449  
2002-05-17 14:11:10 51°13.844 2°41.511 13.679603 3.88125 32.621012  
2002-05-17 14:12:10 51°13.825 2°41.485 13.723465 3.879546 32.607046  
2002-05-17 14:13:11 51°13.821 2°41.452 13.225062 3.879546 32.595772  
2002-05-17 14:14:10 51°13.826 2°41.42 13.497952 3.880949 32.597638  
2002-05-17 14:15:10 51°13.893 2°41.393 13.993764 3.883655 32.608381  
2002-05-17 14:16:10 51°14.007 2°41.599 13.924932 3.891072 32.659862  
2002-05-17 14:17:11 51°14.078 2°41.955 13.43609 3.890572 32.693021  
2002-05-17 14:18:10 51°14.126 2°42.315 13.16554 3.857095 32.433197  
2002-05-17 14:19:10 51°14.176 2°42.679 13.790378 3.842162 32.320361  
2002-05-17 14:20:10 51°14.228 2°43.041 13.384286 3.829332 32.185117  
2002-05-17 14:21:10 51°14.28 2°43.403 13.890401 3.829733 32.15153  
2002-05-17 14:22:10 51°14.339 2°43.761 13.898449 3.834341 32.042763  
2002-05-17 14:23:10 51°14.398 2°44.121 13.482825 3.828027 32.002801  
2002-05-17 14:24:11 51°14.451 2°44.491 13.481134 3.825221 32.003255  
2002-05-17 14:25:10 51°14.502 2°44.851 13.382326 3.823818 32.018745  
2002-05-17 14:26:10 51°14.552 2°45.218 13.620617 3.822616 32.015328  
2002-05-17 14:27:10 51°14.605 2°45.591 13.527216 3.820511 32.013898  
2002-05-17 14:28:10 51°14.658 2°45.961 13.662787 3.820912 32.031951  
2002-05-17 14:29:10 51°14.702 2°46.329 13.75139 3.821814 32.049488  
2002-05-17 14:30:11 51°14.748 2°46.703 13.431681 3.811391 31.969088  
2002-05-17 14:31:10 51°14.795 2°47.067 13.452028 3.804174 31.848612  
2002-05-17 14:32:10 51°14.845 2°47.439 13.565534 3.799263 31.765459  
2002-05-17 14:33:10 51°14.897 2°47.811 13.676764 3.803773 31.774585  
2002-05-17 14:34:10 51°14.946 2°48.185 13.65613 3.805275 31.760272  
2002-05-17 14:35:10 51°14.996 2°48.554 13.748775 3.795253 31.638393  
2002-05-17 14:36:11 51°15.045 2°48.924 14.122932 3.776308 31.277685  
2002-05-17 14:37:10 51°15.087 2°49.28 14.870605 3.766382 30.921569  
2002-05-17 14:38:10 51°15.131 2°49.643 14.257747 3.756661 30.791233  
2002-05-17 14:39:10 51°15.174 2°50.005 14.558369 3.743632 30.645773  
2002-05-17 14:40:10 51°15.217 2°50.367 14.417134 3.732107 30.534848  
2002-05-17 14:41:10 51°15.255 2°50.73 14.30119 3.719581 30.42214  
2002-05-17 14:42:10 51°15.292 2°51.094 14.449597 3.710862 30.347096  
2002-05-17 14:43:10 51°15.303 2°51.46 14.501945 3.70054 30.233536  
2002-05-17 14:44:10 51°15.26 2°51.816 14.953979 3.682101 30.042405  
2002-05-17 14:45:10 51°15.141 2°52.123 14.399886 3.680097 30.0278  
2002-05-17 14:46:10 51°15.024 2°52.435 14.570716 3.690219 30.146999  
2002-05-17 14:47:10 51°14.928 2°52.77 14.632594 3.708358 30.393569  
2002-05-17 14:48:10 51°14.839 2°53.119 13.796844 3.745739 30.84713  
2002-05-17 14:49:10 51°14.751 2°53.463 14.250181 3.739927 30.77733  
2002-05-17 14:50:10 51°14.674 2°53.812 14.385225 3.723991 30.554843  
2002-05-17 14:51:10 51°14.621 2°54.148 14.125973 3.75105 30.850856  
2002-05-17 14:52:10 51°14.557 2°54.456 14.634562 3.735014 30.608576  
2002-05-17 14:53:10 51°14.474 2°54.753 14.298772 3.727095 30.400792  
2002-05-17 14:54:11 51°14.372 2°55.038 14.486605 3.728299 30.469439  
2002-05-17 14:55:10 51°14.257 2°55.249 15.124762 3.626688 29.537728  
2002-05-17 14:56:10 51°14.16 2°55.378 14.897187 3.372415 26.888466  
2002-05-17 14:57:10 51°14.072 2°55.446 14.976525 3.290684 26.131339  
2002-05-17 14:58:10 51°13.989 2°55.506 15.77306 3.198249 25.249722  
2002-05-17 14:59:10 51°13.898 2°55.566 15.67798 2.991698 23.364821  
2002-05-17 15:00:10 51°13.802 2°55.633 15.287363 3.01182 23.594372  
2002-05-17 15:01:10 51°13.727 2°55.723 15.790176 2.784725 21.553804  
2002-05-17 15:02:10 51°13.67 2°55.833 15.77921 2.351456 17.625834  
2002-05-17 15:03:10 51°13.621 2°55.948 15.743461 2.554334 19.403053  
2002-05-17 15:04:10 51°13.578 2°56.047 15.27233 2.618848 20.03447  
2002-05-17 15:05:10 51°13.545 2°56.127 15.098051 2.690374 20.688206  
2002-05-17 15:06:15 51°13.532 2°56.213 16.093731 2.764713 21.367966  
2002-05-17 15:07:15 51°13.559 2°56.259 16.77571 1.8997 13.770222  
2002-05-17 15:08:15 51°13.543 2°56.251 14.350929 2.143387 15.793655  
2002-05-17 15:09:15 51°13.525 2°56.241 14.587088 3.329652 26.876331  
2002-05-17 15:10:15 51°13.527 2°56.239 14.42547 2.984194 23.549442  
2002-05-17 15:11:15 51°13.542 2°56.202 13.871337 3.388049 27.510021  
2002-05-17 15:12:15 51°13.575 2°56.118 14.927375 3.340571 27.065295  
2002-05-17 15:13:15 51°13.606 2°56.045 20.975445 3.164609 25.311056  
2002-05-17 15:14:15 51°13.629 2°55.988 21.591082 3.106433 24.734165  
2002-05-17 15:15:15 51°13.653 2°55.946 23.131051 3.032746 24.014305  
2002-05-17 15:16:15 51°13.674 2°55.912 22.758385 3.017729 23.836719  
2002-05-17 15:17:15 51°13.682 2°55.896 21.883775 3.084906 24.448391  
2002-05-17 15:18:15 51°13.686 2°55.886 23.130393 3.158699 25.140373  
2002-05-17 15:19:15 51°13.688 2°55.884 20.554952 3.176122 25.306933  
2002-05-17 15:20:15 51°13.687 2°55.886 24.068081 3.20376 25.563829  
2002-05-17 15:21:15 51°13.688 2°55.887 23.147119 3.256937 26.058717  
2002-05-17 15:22:15 51°13.687 2°55.887 21.199859 3.146682 24.97137  
2002-05-17 15:23:15 51°13.687 2°55.887 22.755388 3.100323 24.514477  
2002-05-17 15:24:15 51°13.687 2°55.887 22.338607 3.104128 24.544342